sensor_id;sensor_type;location;lat;lon;timestamp;temperature;humidity
17632;DHT22;8934;51.194;17.150;2023-02-28T00:00:18;-0.60;99.90
17632;DHT22;8934;51.194;17.150;2023-02-28T00:03:06;-0.60;99.90
17632;DHT22;8934;51.194;17.150;2023-02-28T00:05:53;-0.60;99.90
17632;DHT22;8934;51.194;17.150;2023-02-28T00:08:41;-0.60;99.90
17632;DHT22;8934;51.194;17.150;2023-02-28T00:11:30;-0.60;99.90
17632;DHT22;8934;51.194;17.150;2023-02-28T00:14:17;-0.60;99.90
17632;DHT22;8934;51.194;17.150;2023-02-28T00:17:05;-0.60;99.90
17632;DHT22;8934;51.194;17.150;2023-02-28T00:19:52;-0.60;99.90
17632;DHT22;8934;51.194;17.150;2023-02-28T00:22:42;-0.60;99.90
17632;DHT22;8934;51.194;17.150;2023-02-28T00:25:30;-0.60;99.90
17632;DHT22;8934;51.194;17.150;2023-02-28T00:28:19;-0.60;99.90
17632;DHT22;8934;51.194;17.150;2023-02-28T00:31:06;-0.60;99.90
17632;DHT22;8934;51.194;17.150;2023-02-28T00:33:54;-0.60;99.90
17632;DHT22;8934;51.194;17.150;2023-02-28T00:36:41;-0.60;99.90
17632;DHT22;8934;51.194;17.150;2023-02-28T00:39:34;-0.60;99.90
17632;DHT22;8934;51.194;17.150;2023-02-28T00:42:22;-0.60;99.90
17632;DHT22;8934;51.194;17.150;2023-02-28T00:45:11;-0.60;99.90
17632;DHT22;8934;51.194;17.150;2023-02-28T00:47:59;-0.60;99.90
17632;DHT22;8934;51.194;17.150;2023-02-28T00:50:48;-0.60;99.90
17632;DHT22;8934;51.194;17.150;2023-02-28T00:53:36;-0.60;99.90
17632;DHT22;8934;51.194;17.150;2023-02-28T00:56:24;-0.60;99.90
17632;DHT22;8934;51.194;17.150;2023-02-28T00:59:12;-0.60;99.90
17632;DHT22;8934;51.194;17.150;2023-02-28T01:02:00;-0.60;99.90
17632;DHT22;8934;51.194;17.150;2023-02-28T01:04:49;-0.60;99.90
17632;DHT22;8934;51.194;17.150;2023-02-28T01:07:36;-0.60;99.90
17632;DHT22;8934;51.194;17.150;2023-02-28T01:10:25;-0.50;99.90
17632;DHT22;8934;51.194;17.150;2023-02-28T01:13:13;-0.60;99.90
17632;DHT22;8934;51.194;17.150;2023-02-28T01:16:01;-0.60;99.90
17632;DHT22;8934;51.194;17.150;2023-02-28T01:18:50;-0.60;99.90
17632;DHT22;8934;51.194;17.150;2023-02-28T01:21:37;-0.60;99.90
17632;DHT22;8934;51.194;17.150;2023-02-28T01:24:25;-0.60;99.90
17632;DHT22;8934;51.194;17.150;2023-02-28T01:27:12;-0.60;99.90
17632;DHT22;8934;51.194;17.150;2023-02-28T01:30:01;-0.50;99.90
17632;DHT22;8934;51.194;17.150;2023-02-28T01:32:48;-0.50;99.90
17632;DHT22;8934;51.194;17.150;2023-02-28T01:35:39;-0.50;99.90
17632;DHT22;8934;51.194;17.150;2023-02-28T01:38:27;-0.50;99.90
17632;DHT22;8934;51.194;17.150;2023-02-28T01:41:17;-0.50;99.90
17632;DHT22;8934;51.194;17.150;2023-02-28T01:44:07;-0.50;99.90
17632;DHT22;8934;51.194;17.150;2023-02-28T01:46:54;-0.50;99.90
17632;DHT22;8934;51.194;17.150;2023-02-28T01:49:42;-0.40;99.90
17632;DHT22;8934;51.194;17.150;2023-02-28T01:52:33;-0.40;99.90
17632;DHT22;8934;51.194;17.150;2023-02-28T01:55:22;-0.30;99.90
17632;DHT22;8934;51.194;17.150;2023-02-28T01:58:16;-0.30;99.90
17632;DHT22;8934;51.194;17.150;2023-02-28T02:01:05;-0.30;99.90
17632;DHT22;8934;51.194;17.150;2023-02-28T02:03:54;-0.40;99.90
17632;DHT22;8934;51.194;17.150;2023-02-28T02:06:46;-0.40;99.90
17632;DHT22;8934;51.194;17.150;2023-02-28T02:09:36;-0.40;99.90
17632;DHT22;8934;51.194;17.150;2023-02-28T02:12:30;-0.40;99.90
17632;DHT22;8934;51.194;17.150;2023-02-28T02:15:25;-0.40;99.90
17632;DHT22;8934;51.194;17.150;2023-02-28T02:18:20;-0.40;99.90
17632;DHT22;8934;51.194;17.150;2023-02-28T02:21:40;-0.50;99.90
17632;DHT22;8934;51.194;17.150;2023-02-28T02:28:12;-0.50;99.90
17632;DHT22;8934;51.194;17.150;2023-02-28T02:31:20;-0.50;99.90
17632;DHT22;8934;51.194;17.150;2023-02-28T02:34:33;-0.50;99.90
17632;DHT22;8934;51.194;17.150;2023-02-28T02:37:29;-0.50;99.90
17632;DHT22;8934;51.194;17.150;2023-02-28T02:40:20;-0.50;99.90
17632;DHT22;8934;51.194;17.150;2023-02-28T02:43:13;-0.60;99.90
17632;DHT22;8934;51.194;17.150;2023-02-28T02:46:06;-0.60;99.90
17632;DHT22;8934;51.194;17.150;2023-02-28T02:48:57;-0.60;99.90
17632;DHT22;8934;51.194;17.150;2023-02-28T02:51:48;-0.60;99.90
17632;DHT22;8934;51.194;17.150;2023-02-28T02:54:39;-0.60;99.90
17632;DHT22;8934;51.194;17.150;2023-02-28T02:57:31;-0.60;99.90
17632;DHT22;8934;51.194;17.150;2023-02-28T03:00:24;-0.70;99.90
17632;DHT22;8934;51.194;17.150;2023-02-28T03:03:14;-0.70;99.90
17632;DHT22;8934;51.194;17.150;2023-02-28T03:06:06;-0.70;99.90
17632;DHT22;8934;51.194;17.150;2023-02-28T03:08:59;-0.70;99.90
17632;DHT22;8934;51.194;17.150;2023-02-28T03:11:47;-0.70;99.90
17632;DHT22;8934;51.194;17.150;2023-02-28T03:14:44;-0.70;99.90
17632;DHT22;8934;51.194;17.150;2023-02-28T03:17:53;-0.70;99.90
17632;DHT22;8934;51.194;17.150;2023-02-28T03:20:53;-0.80;99.90
17632;DHT22;8934;51.194;17.150;2023-02-28T03:23:48;-0.80;99.90
17632;DHT22;8934;51.194;17.150;2023-02-28T03:26:47;-0.80;99.90
17632;DHT22;8934;51.194;17.150;2023-02-28T03:29:39;-0.90;99.90
17632;DHT22;8934;51.194;17.150;2023-02-28T03:32:29;-0.90;99.90
17632;DHT22;8934;51.194;17.150;2023-02-28T03:35:22;-1.00;99.90
17632;DHT22;8934;51.194;17.150;2023-02-28T03:38:14;-1.00;99.90
17632;DHT22;8934;51.194;17.150;2023-02-28T03:41:07;-1.10;99.90
17632;DHT22;8934;51.194;17.150;2023-02-28T03:44:00;-1.10;99.90
17632;DHT22;8934;51.194;17.150;2023-02-28T03:46:54;-1.10;99.90
17632;DHT22;8934;51.194;17.150;2023-02-28T03:49:46;-1.00;99.90
17632;DHT22;8934;51.194;17.150;2023-02-28T03:52:40;-1.10;99.90
17632;DHT22;8934;51.194;17.150;2023-02-28T03:55:36;-1.10;99.90
17632;DHT22;8934;51.194;17.150;2023-02-28T03:58:28;-1.10;99.90
17632;DHT22;8934;51.194;17.150;2023-02-28T04:01:25;-1.10;99.90
17632;DHT22;8934;51.194;17.150;2023-02-28T04:04:15;-1.10;99.90
17632;DHT22;8934;51.194;17.150;2023-02-28T04:07:04;-1.10;99.90
17632;DHT22;8934;51.194;17.150;2023-02-28T04:09:52;-1.10;99.90
17632;DHT22;8934;51.194;17.150;2023-02-28T04:12:40;-1.10;99.90
17632;DHT22;8934;51.194;17.150;2023-02-28T04:15:27;-1.10;99.90
17632;DHT22;8934;51.194;17.150;2023-02-28T04:18:16;-1.10;99.90
17632;DHT22;8934;51.194;17.150;2023-02-28T04:21:04;-1.10;99.90
17632;DHT22;8934;51.194;17.150;2023-02-28T04:23:52;-1.10;99.90
17632;DHT22;8934;51.194;17.150;2023-02-28T04:26:42;-1.10;99.90
17632;DHT22;8934;51.194;17.150;2023-02-28T04:29:31;-1.10;99.90
17632;DHT22;8934;51.194;17.150;2023-02-28T04:32:18;-1.10;99.90
17632;DHT22;8934;51.194;17.150;2023-02-28T04:35:08;-1.10;99.90
17632;DHT22;8934;51.194;17.150;2023-02-28T04:37:57;-1.10;99.90
17632;DHT22;8934;51.194;17.150;2023-02-28T04:40:45;-1.10;99.90
17632;DHT22;8934;51.194;17.150;2023-02-28T04:43:32;-1.10;99.90
17632;DHT22;8934;51.194;17.150;2023-02-28T04:46:20;-1.00;99.90
17632;DHT22;8934;51.194;17.150;2023-02-28T04:49:08;-1.00;99.90
17632;DHT22;8934;51.194;17.150;2023-02-28T04:51:59;-1.00;99.90
17632;DHT22;8934;51.194;17.150;2023-02-28T04:54:47;-1.00;99.90
17632;DHT22;8934;51.194;17.150;2023-02-28T04:57:34;-1.00;99.90
17632;DHT22;8934;51.194;17.150;2023-02-28T05:00:22;-0.90;99.90
17632;DHT22;8934;51.194;17.150;2023-02-28T05:03:10;-0.90;99.90
17632;DHT22;8934;51.194;17.150;2023-02-28T05:05:58;-0.90;99.90
17632;DHT22;8934;51.194;17.150;2023-02-28T05:08:47;-0.90;99.90
17632;DHT22;8934;51.194;17.150;2023-02-28T05:11:35;-0.90;99.90
17632;DHT22;8934;51.194;17.150;2023-02-28T05:14:23;-0.90;99.90
17632;DHT22;8934;51.194;17.150;2023-02-28T05:17:12;-0.90;99.90
17632;DHT22;8934;51.194;17.150;2023-02-28T05:19:59;-0.90;99.90
17632;DHT22;8934;51.194;17.150;2023-02-28T05:23:01;-0.80;99.90
17632;DHT22;8934;51.194;17.150;2023-02-28T05:25:50;-0.80;99.90
17632;DHT22;8934;51.194;17.150;2023-02-28T05:28:39;-0.80;99.90
17632;DHT22;8934;51.194;17.150;2023-02-28T05:31:26;-0.80;99.90
17632;DHT22;8934;51.194;17.150;2023-02-28T05:34:14;-0.80;99.90
17632;DHT22;8934;51.194;17.150;2023-02-28T05:37:02;-0.80;99.90
17632;DHT22;8934;51.194;17.150;2023-02-28T05:39:50;-0.80;99.90
17632;DHT22;8934;51.194;17.150;2023-02-28T05:42:39;-0.80;99.90
17632;DHT22;8934;51.194;17.150;2023-02-28T05:45:26;-0.80;99.90
17632;DHT22;8934;51.194;17.150;2023-02-28T05:48:14;-0.70;99.90
17632;DHT22;8934;51.194;17.150;2023-02-28T05:51:03;-0.70;99.90
17632;DHT22;8934;51.194;17.150;2023-02-28T05:53:51;-0.70;99.90
17632;DHT22;8934;51.194;17.150;2023-02-28T05:56:39;-0.60;99.90
17632;DHT22;8934;51.194;17.150;2023-02-28T05:59:31;-0.60;99.90
17632;DHT22;8934;51.194;17.150;2023-02-28T06:02:19;-0.60;99.90
17632;DHT22;8934;51.194;17.150;2023-02-28T06:05:10;-0.50;99.90
17632;DHT22;8934;51.194;17.150;2023-02-28T06:07:59;-0.50;99.90
17632;DHT22;8934;51.194;17.150;2023-02-28T06:10:47;-0.50;99.90
17632;DHT22;8934;51.194;17.150;2023-02-28T06:13:35;-0.60;99.90
17632;DHT22;8934;51.194;17.150;2023-02-28T06:16:24;-0.70;99.90
17632;DHT22;8934;51.194;17.150;2023-02-28T06:19:12;-0.70;99.90
17632;DHT22;8934;51.194;17.150;2023-02-28T06:22:01;-0.70;99.90
17632;DHT22;8934;51.194;17.150;2023-02-28T06:24:48;-0.80;99.90
17632;DHT22;8934;51.194;17.150;2023-02-28T06:27:36;-0.90;99.90
17632;DHT22;8934;51.194;17.150;2023-02-28T06:30:24;-0.90;99.90
17632;DHT22;8934;51.194;17.150;2023-02-28T06:33:14;-0.90;99.90
17632;DHT22;8934;51.194;17.150;2023-02-28T06:36:02;-0.90;99.90
17632;DHT22;8934;51.194;17.150;2023-02-28T06:38:50;-0.90;99.90
17632;DHT22;8934;51.194;17.150;2023-02-28T06:41:40;-0.90;99.90
17632;DHT22;8934;51.194;17.150;2023-02-28T06:44:40;-0.90;99.90
17632;DHT22;8934;51.194;17.150;2023-02-28T06:47:31;-0.90;99.90
17632;DHT22;8934;51.194;17.150;2023-02-28T06:50:20;-0.80;99.90
17632;DHT22;8934;51.194;17.150;2023-02-28T06:53:07;-0.80;99.90
17632;DHT22;8934;51.194;17.150;2023-02-28T06:55:55;-0.70;99.90
17632;DHT22;8934;51.194;17.150;2023-02-28T06:58:46;-0.60;99.90
17632;DHT22;8934;51.194;17.150;2023-02-28T07:01:34;-0.40;99.90
17632;DHT22;8934;51.194;17.150;2023-02-28T07:04:22;-0.30;99.90
17632;DHT22;8934;51.194;17.150;2023-02-28T07:07:11;-0.10;99.90
17632;DHT22;8934;51.194;17.150;2023-02-28T07:09:59;0.10;99.90
17632;DHT22;8934;51.194;17.150;2023-02-28T07:12:46;0.30;99.90
17632;DHT22;8934;51.194;17.150;2023-02-28T07:15:34;0.50;99.90
17632;DHT22;8934;51.194;17.150;2023-02-28T07:18:26;0.70;99.90
17632;DHT22;8934;51.194;17.150;2023-02-28T07:21:14;0.90;99.90
17632;DHT22;8934;51.194;17.150;2023-02-28T07:24:04;1.10;99.90
17632;DHT22;8934;51.194;17.150;2023-02-28T07:26:51;1.30;99.90
17632;DHT22;8934;51.194;17.150;2023-02-28T07:29:39;1.40;99.90
17632;DHT22;8934;51.194;17.150;2023-02-28T07:32:26;1.50;99.90
17632;DHT22;8934;51.194;17.150;2023-02-28T07:35:14;1.60;99.90
17632;DHT22;8934;51.194;17.150;2023-02-28T07:38:03;1.70;99.90
17632;DHT22;8934;51.194;17.150;2023-02-28T07:40:51;1.80;99.90
17632;DHT22;8934;51.194;17.150;2023-02-28T07:43:39;2.00;99.90
17632;DHT22;8934;51.194;17.150;2023-02-28T07:46:27;2.20;99.90
17632;DHT22;8934;51.194;17.150;2023-02-28T07:49:16;2.40;99.90
17632;DHT22;8934;51.194;17.150;2023-02-28T07:52:04;2.50;99.90
17632;DHT22;8934;51.194;17.150;2023-02-28T07:54:52;2.60;99.90
17632;DHT22;8934;51.194;17.150;2023-02-28T07:57:41;2.80;99.90
17632;DHT22;8934;51.194;17.150;2023-02-28T08:00:29;3.00;99.90
17632;DHT22;8934;51.194;17.150;2023-02-28T08:03:18;3.00;99.90
17632;DHT22;8934;51.194;17.150;2023-02-28T08:06:08;2.90;99.90
17632;DHT22;8934;51.194;17.150;2023-02-28T08:09:02;2.80;99.90
17632;DHT22;8934;51.194;17.150;2023-02-28T08:11:49;2.70;99.90
17632;DHT22;8934;51.194;17.150;2023-02-28T08:14:38;2.90;99.90
17632;DHT22;8934;51.194;17.150;2023-02-28T08:17:26;3.10;99.90
17632;DHT22;8934;51.194;17.150;2023-02-28T08:20:14;3.30;99.90
17632;DHT22;8934;51.194;17.150;2023-02-28T08:23:01;3.20;99.90
17632;DHT22;8934;51.194;17.150;2023-02-28T08:25:53;3.40;99.90
17632;DHT22;8934;51.194;17.150;2023-02-28T08:28:41;3.50;99.90
17632;DHT22;8934;51.194;17.150;2023-02-28T08:31:29;3.60;99.90
17632;DHT22;8934;51.194;17.150;2023-02-28T08:34:17;3.50;99.90
17632;DHT22;8934;51.194;17.150;2023-02-28T08:37:05;3.40;99.90
17632;DHT22;8934;51.194;17.150;2023-02-28T08:39:52;3.00;99.90
17632;DHT22;8934;51.194;17.150;2023-02-28T08:42:41;3.10;99.90
17632;DHT22;8934;51.194;17.150;2023-02-28T08:45:29;3.20;99.90
17632;DHT22;8934;51.194;17.150;2023-02-28T08:48:18;3.50;99.90
17632;DHT22;8934;51.194;17.150;2023-02-28T08:51:08;3.70;99.90
17632;DHT22;8934;51.194;17.150;2023-02-28T08:53:58;3.80;99.90
17632;DHT22;8934;51.194;17.150;2023-02-28T08:56:46;3.80;99.90
17632;DHT22;8934;51.194;17.150;2023-02-28T08:59:35;3.90;99.90
17632;DHT22;8934;51.194;17.150;2023-02-28T09:02:22;4.10;99.90
17632;DHT22;8934;51.194;17.150;2023-02-28T09:05:11;4.20;99.90
17632;DHT22;8934;51.194;17.150;2023-02-28T09:07:59;4.30;99.90
17632;DHT22;8934;51.194;17.150;2023-02-28T09:10:47;4.40;99.90
17632;DHT22;8934;51.194;17.150;2023-02-28T09:13:34;4.10;99.90
17632;DHT22;8934;51.194;17.150;2023-02-28T09:16:22;3.90;99.90
17632;DHT22;8934;51.194;17.150;2023-02-28T09:19:10;4.00;99.90
17632;DHT22;8934;51.194;17.150;2023-02-28T09:21:59;4.10;99.90
17632;DHT22;8934;51.194;17.150;2023-02-28T09:24:47;4.40;99.90
17632;DHT22;8934;51.194;17.150;2023-02-28T09:27:34;4.30;99.90
17632;DHT22;8934;51.194;17.150;2023-02-28T09:30:23;4.00;99.90
17632;DHT22;8934;51.194;17.150;2023-02-28T09:33:10;4.10;99.90
17632;DHT22;8934;51.194;17.150;2023-02-28T09:35:59;4.10;99.90
17632;DHT22;8934;51.194;17.150;2023-02-28T09:38:49;4.10;99.90
17632;DHT22;8934;51.194;17.150;2023-02-28T09:41:39;4.00;99.90
17632;DHT22;8934;51.194;17.150;2023-02-28T09:44:37;4.00;99.90
17632;DHT22;8934;51.194;17.150;2023-02-28T09:47:29;4.10;99.90
17632;DHT22;8934;51.194;17.150;2023-02-28T09:50:30;4.30;99.90
17632;DHT22;8934;51.194;17.150;2023-02-28T09:53:22;4.40;99.90
17632;DHT22;8934;51.194;17.150;2023-02-28T09:56:19;4.80;99.90
17632;DHT22;8934;51.194;17.150;2023-02-28T09:59:21;5.30;99.90
17632;DHT22;8934;51.194;17.150;2023-02-28T10:05:24;6.20;99.90
17632;DHT22;8934;51.194;17.150;2023-02-28T10:08:14;6.40;99.90
17632;DHT22;8934;51.194;17.150;2023-02-28T10:11:06;6.60;99.90
17632;DHT22;8934;51.194;17.150;2023-02-28T10:13:58;6.50;99.90
17632;DHT22;8934;51.194;17.150;2023-02-28T10:16:54;6.60;99.90
17632;DHT22;8934;51.194;17.150;2023-02-28T10:19:47;6.40;99.90
17632;DHT22;8934;51.194;17.150;2023-02-28T10:22:44;6.30;99.90
17632;DHT22;8934;51.194;17.150;2023-02-28T10:25:38;6.60;99.90
17632;DHT22;8934;51.194;17.150;2023-02-28T10:28:27;6.70;99.90
17632;DHT22;8934;51.194;17.150;2023-02-28T10:31:19;6.70;99.90
17632;DHT22;8934;51.194;17.150;2023-02-28T10:34:12;6.40;99.90
17632;DHT22;8934;51.194;17.150;2023-02-28T10:37:00;5.80;99.90
17632;DHT22;8934;51.194;17.150;2023-02-28T10:39:53;5.60;99.90
17632;DHT22;8934;51.194;17.150;2023-02-28T10:42:41;5.60;99.90
17632;DHT22;8934;51.194;17.150;2023-02-28T10:45:30;5.60;99.90
17632;DHT22;8934;51.194;17.150;2023-02-28T10:48:32;5.40;99.90
17632;DHT22;8934;51.194;17.150;2023-02-28T10:51:22;5.40;99.90
17632;DHT22;8934;51.194;17.150;2023-02-28T10:54:18;5.40;99.90
17632;DHT22;8934;51.194;17.150;2023-02-28T10:57:21;5.30;99.90
17632;DHT22;8934;51.194;17.150;2023-02-28T11:00:16;5.10;99.90
17632;DHT22;8934;51.194;17.150;2023-02-28T11:03:23;5.10;99.90
17632;DHT22;8934;51.194;17.150;2023-02-28T11:06:17;5.10;99.90
17632;DHT22;8934;51.194;17.150;2023-02-28T11:09:19;5.20;99.90
17632;DHT22;8934;51.194;17.150;2023-02-28T11:12:22;5.50;99.90
17632;DHT22;8934;51.194;17.150;2023-02-28T11:15:21;6.00;99.90
17632;DHT22;8934;51.194;17.150;2023-02-28T11:18:21;6.50;99.90
17632;DHT22;8934;51.194;17.150;2023-02-28T11:21:18;6.60;99.90
17632;DHT22;8934;51.194;17.150;2023-02-28T11:24:14;6.90;99.90
17632;DHT22;8934;51.194;17.150;2023-02-28T11:27:03;7.00;99.90
17632;DHT22;8934;51.194;17.150;2023-02-28T11:29:51;6.80;99.90
17632;DHT22;8934;51.194;17.150;2023-02-28T11:32:48;6.50;99.90
17632;DHT22;8934;51.194;17.150;2023-02-28T11:35:38;6.30;99.90
17632;DHT22;8934;51.194;17.150;2023-02-28T11:38:28;5.80;99.90
17632;DHT22;8934;51.194;17.150;2023-02-28T11:41:37;5.40;99.90
17632;DHT22;8934;51.194;17.150;2023-02-28T11:44:41;5.20;99.90
17632;DHT22;8934;51.194;17.150;2023-02-28T11:47:34;5.00;99.90
17632;DHT22;8934;51.194;17.150;2023-02-28T11:50:40;4.60;99.90
17632;DHT22;8934;51.194;17.150;2023-02-28T11:53:48;4.50;99.90
17632;DHT22;8934;51.194;17.150;2023-02-28T11:56:41;4.70;99.90
17632;DHT22;8934;51.194;17.150;2023-02-28T11:59:48;5.00;99.90
17632;DHT22;8934;51.194;17.150;2023-02-28T12:02:52;5.60;99.90
17632;DHT22;8934;51.194;17.150;2023-02-28T12:05:44;6.10;99.90
17632;DHT22;8934;51.194;17.150;2023-02-28T12:08:51;6.70;99.90
17632;DHT22;8934;51.194;17.150;2023-02-28T12:11:49;7.40;99.90
17632;DHT22;8934;51.194;17.150;2023-02-28T12:14:54;7.50;99.90
17632;DHT22;8934;51.194;17.150;2023-02-28T12:18:00;7.20;99.90
17632;DHT22;8934;51.194;17.150;2023-02-28T12:20:54;7.00;99.90
17632;DHT22;8934;51.194;17.150;2023-02-28T12:24:12;7.10;99.90
17632;DHT22;8934;51.194;17.150;2023-02-28T12:27:08;7.20;99.90
17632;DHT22;8934;51.194;17.150;2023-02-28T12:30:00;7.50;99.90
17632;DHT22;8934;51.194;17.150;2023-02-28T12:32:52;7.70;99.90
17632;DHT22;8934;51.194;17.150;2023-02-28T12:35:46;7.90;99.90
17632;DHT22;8934;51.194;17.150;2023-02-28T12:38:39;8.10;99.90
17632;DHT22;8934;51.194;17.150;2023-02-28T12:41:36;7.80;99.90
17632;DHT22;8934;51.194;17.150;2023-02-28T12:44:30;7.20;99.90
17632;DHT22;8934;51.194;17.150;2023-02-28T12:47:18;7.00;99.90
17632;DHT22;8934;51.194;17.150;2023-02-28T12:50:08;7.20;99.90
17632;DHT22;8934;51.194;17.150;2023-02-28T12:53:02;7.20;99.90
17632;DHT22;8934;51.194;17.150;2023-02-28T12:55:56;7.60;99.90
17632;DHT22;8934;51.194;17.150;2023-02-28T12:58:50;8.10;99.90
17632;DHT22;8934;51.194;17.150;2023-02-28T13:02:09;8.00;99.90
17632;DHT22;8934;51.194;17.150;2023-02-28T13:08:52;8.00;99.90
17632;DHT22;8934;51.194;17.150;2023-02-28T13:11:47;7.70;99.90
17632;DHT22;8934;51.194;17.150;2023-02-28T13:14:37;7.30;99.90
17632;DHT22;8934;51.194;17.150;2023-02-28T13:17:25;7.10;99.90
17632;DHT22;8934;51.194;17.150;2023-02-28T13:20:18;6.90;99.90
17632;DHT22;8934;51.194;17.150;2023-02-28T13:27:19;7.10;99.90
17632;DHT22;8934;51.194;17.150;2023-02-28T13:33:37;7.30;99.90
17632;DHT22;8934;51.194;17.150;2023-02-28T13:36:45;7.40;99.90
17632;DHT22;8934;51.194;17.150;2023-02-28T13:39:47;7.80;99.90
17632;DHT22;8934;51.194;17.150;2023-02-28T13:42:36;7.70;99.90
17632;DHT22;8934;51.194;17.150;2023-02-28T13:45:26;8.00;99.90
17632;DHT22;8934;51.194;17.150;2023-02-28T13:48:18;8.10;99.90
17632;DHT22;8934;51.194;17.150;2023-02-28T13:51:37;8.30;99.90
17632;DHT22;8934;51.194;17.150;2023-02-28T13:54:34;8.50;99.90
17632;DHT22;8934;51.194;17.150;2023-02-28T13:57:38;8.70;99.90
17632;DHT22;8934;51.194;17.150;2023-02-28T14:00:41;8.90;99.90
17632;DHT22;8934;51.194;17.150;2023-02-28T14:03:42;8.80;99.90
17632;DHT22;8934;51.194;17.150;2023-02-28T14:06:33;8.90;99.90
17632;DHT22;8934;51.194;17.150;2023-02-28T14:09:26;9.00;99.90
17632;DHT22;8934;51.194;17.150;2023-02-28T14:15:55;9.10;99.90
17632;DHT22;8934;51.194;17.150;2023-02-28T14:18:50;8.90;99.90
17632;DHT22;8934;51.194;17.150;2023-02-28T14:21:43;9.00;99.90
17632;DHT22;8934;51.194;17.150;2023-02-28T14:25:09;9.10;99.90
17632;DHT22;8934;51.194;17.150;2023-02-28T14:28:07;9.20;99.90
17632;DHT22;8934;51.194;17.150;2023-02-28T14:31:02;9.10;99.90
17632;DHT22;8934;51.194;17.150;2023-02-28T14:34:05;8.90;99.90
17632;DHT22;8934;51.194;17.150;2023-02-28T14:37:02;8.60;99.90
17632;DHT22;8934;51.194;17.150;2023-02-28T14:39:51;8.90;99.90
17632;DHT22;8934;51.194;17.150;2023-02-28T14:42:39;9.20;99.90
17632;DHT22;8934;51.194;17.150;2023-02-28T14:45:31;9.40;99.90
17632;DHT22;8934;51.194;17.150;2023-02-28T14:48:19;9.50;99.90
17632;DHT22;8934;51.194;17.150;2023-02-28T14:51:10;9.70;99.90
17632;DHT22;8934;51.194;17.150;2023-02-28T14:54:00;9.90;99.90
17632;DHT22;8934;51.194;17.150;2023-02-28T14:56:50;9.90;99.90
17632;DHT22;8934;51.194;17.150;2023-02-28T14:59:38;9.90;99.90
17632;DHT22;8934;51.194;17.150;2023-02-28T15:02:29;10.00;99.90
17632;DHT22;8934;51.194;17.150;2023-02-28T15:05:26;10.10;99.90
17632;DHT22;8934;51.194;17.150;2023-02-28T15:08:15;10.10;99.90
17632;DHT22;8934;51.194;17.150;2023-02-28T15:11:06;10.20;98.90
17632;DHT22;8934;51.194;17.150;2023-02-28T15:13:56;9.90;99.80
17632;DHT22;8934;51.194;17.150;2023-02-28T15:16:44;9.80;99.90
17632;DHT22;8934;51.194;17.150;2023-02-28T15:19:36;9.60;99.90
17632;DHT22;8934;51.194;17.150;2023-02-28T15:22:31;9.10;99.90
17632;DHT22;8934;51.194;17.150;2023-02-28T15:25:21;8.30;99.90
17632;DHT22;8934;51.194;17.150;2023-02-28T15:28:14;7.50;99.90
17632;DHT22;8934;51.194;17.150;2023-02-28T15:31:19;6.90;99.90
17632;DHT22;8934;51.194;17.150;2023-02-28T15:34:19;6.20;99.90
17632;DHT22;8934;51.194;17.150;2023-02-28T15:37:28;5.90;99.90
17632;DHT22;8934;51.194;17.150;2023-02-28T15:40:23;5.50;99.90
17632;DHT22;8934;51.194;17.150;2023-02-28T15:43:15;5.20;99.90
17632;DHT22;8934;51.194;17.150;2023-02-28T15:46:06;5.00;99.90
17632;DHT22;8934;51.194;17.150;2023-02-28T15:48:56;4.80;99.90
17632;DHT22;8934;51.194;17.150;2023-02-28T15:51:44;4.60;99.90
17632;DHT22;8934;51.194;17.150;2023-02-28T15:54:33;4.40;99.90
17632;DHT22;8934;51.194;17.150;2023-02-28T15:57:24;4.10;99.90
17632;DHT22;8934;51.194;17.150;2023-02-28T16:00:15;4.00;99.90
17632;DHT22;8934;51.194;17.150;2023-02-28T16:03:26;3.80;99.90
17632;DHT22;8934;51.194;17.150;2023-02-28T16:06:35;3.60;99.90
17632;DHT22;8934;51.194;17.150;2023-02-28T16:09:23;3.40;99.90
17632;DHT22;8934;51.194;17.150;2023-02-28T16:12:11;3.30;99.90
17632;DHT22;8934;51.194;17.150;2023-02-28T16:15:02;3.10;99.90
17632;DHT22;8934;51.194;17.150;2023-02-28T16:17:53;3.00;99.90
17632;DHT22;8934;51.194;17.150;2023-02-28T16:20:43;2.80;99.90
17632;DHT22;8934;51.194;17.150;2023-02-28T16:23:30;2.60;99.90
17632;DHT22;8934;51.194;17.150;2023-02-28T16:26:21;2.40;99.90
17632;DHT22;8934;51.194;17.150;2023-02-28T16:29:13;2.30;99.90
17632;DHT22;8934;51.194;17.150;2023-02-28T16:32:05;2.10;99.90
17632;DHT22;8934;51.194;17.150;2023-02-28T16:34:53;1.90;99.90
17632;DHT22;8934;51.194;17.150;2023-02-28T16:37:42;1.80;99.90
17632;DHT22;8934;51.194;17.150;2023-02-28T16:40:33;1.70;99.90
17632;DHT22;8934;51.194;17.150;2023-02-28T16:43:24;1.50;99.90
17632;DHT22;8934;51.194;17.150;2023-02-28T16:46:12;1.30;99.90
17632;DHT22;8934;51.194;17.150;2023-02-28T16:49:00;1.20;99.90
17632;DHT22;8934;51.194;17.150;2023-02-28T16:51:47;1.00;99.90
17632;DHT22;8934;51.194;17.150;2023-02-28T16:54:36;0.90;99.90
17632;DHT22;8934;51.194;17.150;2023-02-28T16:57:23;0.70;99.90
17632;DHT22;8934;51.194;17.150;2023-02-28T17:00:13;0.60;99.90
17632;DHT22;8934;51.194;17.150;2023-02-28T17:03:00;0.50;99.90
17632;DHT22;8934;51.194;17.150;2023-02-28T17:05:51;0.40;99.90
17632;DHT22;8934;51.194;17.150;2023-02-28T17:08:40;0.20;99.90
17632;DHT22;8934;51.194;17.150;2023-02-28T17:11:29;0.10;99.90
17632;DHT22;8934;51.194;17.150;2023-02-28T17:14:17;0.00;99.90
17632;DHT22;8934;51.194;17.150;2023-02-28T17:17:05;-0.10;99.90
17632;DHT22;8934;51.194;17.150;2023-02-28T17:19:53;-0.20;99.90
17632;DHT22;8934;51.194;17.150;2023-02-28T17:22:40;-0.30;99.90
17632;DHT22;8934;51.194;17.150;2023-02-28T17:25:28;-0.40;99.90
17632;DHT22;8934;51.194;17.150;2023-02-28T17:28:16;-0.50;99.90
17632;DHT22;8934;51.194;17.150;2023-02-28T17:31:04;-0.60;99.90
17632;DHT22;8934;51.194;17.150;2023-02-28T17:33:52;-0.70;99.90
17632;DHT22;8934;51.194;17.150;2023-02-28T17:36:40;-0.70;99.90
17632;DHT22;8934;51.194;17.150;2023-02-28T17:39:28;-0.80;99.90
17632;DHT22;8934;51.194;17.150;2023-02-28T17:42:17;-0.80;99.90
17632;DHT22;8934;51.194;17.150;2023-02-28T17:45:08;-0.90;99.90
17632;DHT22;8934;51.194;17.150;2023-02-28T17:47:55;-0.90;99.90
17632;DHT22;8934;51.194;17.150;2023-02-28T17:50:43;-1.00;99.90
17632;DHT22;8934;51.194;17.150;2023-02-28T17:53:31;-1.00;99.90
17632;DHT22;8934;51.194;17.150;2023-02-28T17:56:20;-1.00;99.90
17632;DHT22;8934;51.194;17.150;2023-02-28T17:59:10;-1.10;99.90
17632;DHT22;8934;51.194;17.150;2023-02-28T18:02:00;-1.10;99.90
17632;DHT22;8934;51.194;17.150;2023-02-28T18:04:47;-1.10;99.90
17632;DHT22;8934;51.194;17.150;2023-02-28T18:07:36;-1.10;99.90
17632;DHT22;8934;51.194;17.150;2023-02-28T18:10:24;-1.10;99.90
17632;DHT22;8934;51.194;17.150;2023-02-28T18:13:13;-1.00;99.90
17632;DHT22;8934;51.194;17.150;2023-02-28T18:16:00;-1.00;99.90
17632;DHT22;8934;51.194;17.150;2023-02-28T18:18:50;-1.00;99.90
17632;DHT22;8934;51.194;17.150;2023-02-28T18:21:38;-1.00;99.90
17632;DHT22;8934;51.194;17.150;2023-02-28T18:24:26;-1.10;99.90
17632;DHT22;8934;51.194;17.150;2023-02-28T18:27:13;-1.10;99.90
17632;DHT22;8934;51.194;17.150;2023-02-28T18:30:04;-1.20;99.90
17632;DHT22;8934;51.194;17.150;2023-02-28T18:32:52;-1.20;99.90
17632;DHT22;8934;51.194;17.150;2023-02-28T18:35:41;-1.30;99.90